createdAt,value
2023-05-15T00:00:22.952Z,5.80
2023-05-15T00:02:50.302Z,6.20
2023-05-15T00:05:17.424Z,5.57
2023-05-15T00:07:44.546Z,6.30
2023-05-15T00:10:13.947Z,5.90
2023-05-15T00:12:41.035Z,5.67
2023-05-15T00:15:09.058Z,5.90
2023-05-15T00:17:36.133Z,5.70
2023-05-15T00:20:04.775Z,6.17
2023-05-15T00:22:31.844Z,5.83
2023-05-15T00:24:59.558Z,5.47
2023-05-15T00:27:27.940Z,6.13
2023-05-15T00:29:55.062Z,5.37
2023-05-15T00:32:22.266Z,5.57
2023-05-15T00:34:49.284Z,5.37
2023-05-15T00:37:16.633Z,4.90
2023-05-15T00:39:43.690Z,5.43
2023-05-15T00:42:11.323Z,5.97
2023-05-15T00:44:40.382Z,6.00
2023-05-15T00:47:10.770Z,6.00
2023-05-15T00:49:38.688Z,5.67
2023-05-15T00:52:08.355Z,5.63
2023-05-15T00:54:35.673Z,5.77
2023-05-15T00:57:05.589Z,5.53
2023-05-15T00:59:33.439Z,5.60
2023-05-15T01:02:00.907Z,5.27
2023-05-15T01:04:28.097Z,5.50
2023-05-15T01:06:55.395Z,5.57
2023-05-15T01:09:25.629Z,6.47
2023-05-15T01:11:57.423Z,6.57
2023-05-15T01:14:24.514Z,6.50
2023-05-15T01:16:51.591Z,5.77
2023-05-15T01:19:19.035Z,6.80
2023-05-15T01:22:31.439Z,5.90
2023-05-15T01:25:34.372Z,6.30
2023-05-15T01:28:13.305Z,5.80
2023-05-15T01:30:44.849Z,6.07
2023-05-15T01:33:26.640Z,6.17
2023-05-15T01:36:06.078Z,5.80
2023-05-15T01:38:53.373Z,5.70
2023-05-15T01:41:41.725Z,5.70
2023-05-15T01:47:13.879Z,6.53
2023-05-15T01:49:45.021Z,6.27
2023-05-15T01:52:32.609Z,5.97
2023-05-15T01:55:02.752Z,7.33
2023-05-15T01:57:31.750Z,7.90
2023-05-15T02:00:00.527Z,6.97
2023-05-15T02:02:29.402Z,6.40
2023-05-15T02:04:57.831Z,7.27
2023-05-15T02:07:27.382Z,6.93
2023-05-15T02:09:55.559Z,6.50
2023-05-15T02:12:24.546Z,7.00
2023-05-15T02:14:52.892Z,7.33
2023-05-15T02:17:23.733Z,6.73
2023-05-15T02:19:51.514Z,7.23
2023-05-15T02:22:18.598Z,6.90
2023-05-15T02:24:45.735Z,6.60
2023-05-15T02:27:35.350Z,6.20
2023-05-15T02:30:49.441Z,6.40
2023-05-15T02:34:18.825Z,5.93
2023-05-15T02:36:50.994Z,6.43
2023-05-15T02:39:20.907Z,6.00
2023-05-15T02:41:50.196Z,6.07
2023-05-15T02:44:18.380Z,5.40
2023-05-15T02:46:48.525Z,6.47
2023-05-15T02:49:16.424Z,7.03
2023-05-15T02:51:43.592Z,6.40
2023-05-15T02:54:11.494Z,7.13
2023-05-15T02:56:38.554Z,6.80
2023-05-15T02:59:06.427Z,6.43
2023-05-15T03:01:36.323Z,7.27
2023-05-15T03:04:06.098Z,6.27
2023-05-15T03:06:33.395Z,6.73
2023-05-15T03:09:00.462Z,6.67
2023-05-15T03:11:29.916Z,7.13
2023-05-15T03:13:57.101Z,6.37
2023-05-15T03:16:24.187Z,7.97
2023-05-15T03:18:51.372Z,6.70
2023-05-15T03:21:19.868Z,6.80
2023-05-15T03:23:46.960Z,6.77
2023-05-15T03:26:14.049Z,6.80
2023-05-15T03:28:42.282Z,6.63
2023-05-15T03:31:09.951Z,8.07
2023-05-15T03:33:38.293Z,7.97
2023-05-15T03:36:06.856Z,7.70
2023-05-15T03:38:33.937Z,6.80
2023-05-15T03:41:01.000Z,6.03
2023-05-15T03:43:28.173Z,5.87
2023-05-15T03:45:55.623Z,5.80
2023-05-15T03:48:22.684Z,6.57
2023-05-15T03:50:49.919Z,7.07
2023-05-15T03:53:16.999Z,7.53
2023-05-15T03:55:44.388Z,7.77
2023-05-15T03:58:11.491Z,7.90
2023-05-15T04:00:38.604Z,8.30
2023-05-15T04:03:05.875Z,7.40
2023-05-15T04:05:33.085Z,7.73
2023-05-15T04:08:00.233Z,7.80
2023-05-15T04:10:27.534Z,8.87
2023-05-15T04:12:54.651Z,9.27
2023-05-15T04:15:28.677Z,7.20
2023-05-15T04:17:56.154Z,6.73
2023-05-15T04:20:25.148Z,7.70
2023-05-15T04:22:52.971Z,7.57
2023-05-15T04:25:20.550Z,7.20
2023-05-15T04:27:49.123Z,7.50
2023-05-15T04:30:16.589Z,8.03
2023-05-15T04:32:43.878Z,8.33
2023-05-15T04:35:13.346Z,7.67
2023-05-15T04:37:42.347Z,8.80
2023-05-15T04:40:10.525Z,8.87
2023-05-15T04:42:39.131Z,9.70
2023-05-15T04:45:08.155Z,8.97
2023-05-15T04:47:38.633Z,8.40
2023-05-15T04:50:06.788Z,8.07
2023-05-15T04:52:33.907Z,8.97
2023-05-15T04:55:01.010Z,9.67
2023-05-15T04:57:30.983Z,10.57
2023-05-15T04:59:58.137Z,9.87
2023-05-15T05:02:25.468Z,9.37
2023-05-15T05:04:52.638Z,9.10
2023-05-15T05:07:19.855Z,8.60
2023-05-15T05:09:47.048Z,8.33
2023-05-15T05:12:14.468Z,7.83
2023-05-15T05:14:44.138Z,7.93
2023-05-15T05:17:11.246Z,7.27
2023-05-15T05:19:38.315Z,9.03
2023-05-15T05:22:06.144Z,7.70
2023-05-15T05:24:35.737Z,8.03
2023-05-15T05:27:03.361Z,7.90
2023-05-15T05:29:31.295Z,8.20
2023-05-15T05:31:58.523Z,9.00
2023-05-15T05:34:25.670Z,9.50
2023-05-15T05:36:55.004Z,8.73
2023-05-15T05:39:22.085Z,9.50
2023-05-15T05:41:49.286Z,10.40
2023-05-15T05:44:16.608Z,9.67
2023-05-15T05:46:45.182Z,10.50
2023-05-15T05:49:12.355Z,8.53
2023-05-15T05:51:39.511Z,8.90
2023-05-15T05:54:06.663Z,8.73
2023-05-15T05:56:33.931Z,9.60
2023-05-15T05:59:01.989Z,9.20
2023-05-15T06:01:29.468Z,9.03
2023-05-15T06:03:57.870Z,7.33
2023-05-15T06:06:25.086Z,7.70
2023-05-15T06:08:54.188Z,8.17
2023-05-15T06:11:25.101Z,8.83
2023-05-15T06:13:52.739Z,8.93
2023-05-15T06:16:19.924Z,7.77
2023-05-15T06:18:47.081Z,8.27
2023-05-15T06:21:14.157Z,8.30
2023-05-15T06:23:41.430Z,8.40
2023-05-15T06:26:08.549Z,7.57
2023-05-15T06:28:35.732Z,7.20
2023-05-15T06:31:02.999Z,7.00
2023-05-15T06:33:36.561Z,8.10
2023-05-15T06:36:03.841Z,8.10
2023-05-15T06:38:31.031Z,7.97
2023-05-15T06:40:58.254Z,6.30
2023-05-15T06:43:25.438Z,5.90
2023-05-15T06:45:52.512Z,6.83
2023-05-15T06:48:19.715Z,7.17
2023-05-15T06:50:46.858Z,6.80
2023-05-15T06:53:14.648Z,8.87
2023-05-15T06:55:41.879Z,7.43
2023-05-15T06:58:09.030Z,7.80
2023-05-15T07:00:36.065Z,6.13
2023-05-15T07:03:03.281Z,7.10
2023-05-15T07:05:30.705Z,6.07
2023-05-15T07:07:57.895Z,6.23
2023-05-15T07:10:25.158Z,7.00
2023-05-15T07:12:52.621Z,14.67
2023-05-15T07:15:19.910Z,5.90
2023-05-15T07:17:47.084Z,5.90
2023-05-15T07:20:14.302Z,6.70
2023-05-15T07:22:51.920Z,6.37
2023-05-15T07:25:26.146Z,5.53
2023-05-15T07:27:53.675Z,5.20
2023-05-15T07:30:20.980Z,5.87
2023-05-15T07:32:48.060Z,5.97
2023-05-15T07:35:16.218Z,5.90
2023-05-15T07:37:43.339Z,6.23
2023-05-15T07:40:10.939Z,5.37
2023-05-15T07:42:39.761Z,6.20
2023-05-15T07:45:08.253Z,5.60
2023-05-15T07:47:35.974Z,5.07
2023-05-15T07:50:03.734Z,4.63
2023-05-15T07:52:31.020Z,4.90
2023-05-15T07:54:58.209Z,4.23
2023-05-15T07:57:26.402Z,4.90
2023-05-15T07:59:53.482Z,4.37
2023-05-15T08:02:20.707Z,4.83
2023-05-15T08:04:47.838Z,5.03
2023-05-15T08:07:15.639Z,5.03
2023-05-15T08:09:42.835Z,5.00
2023-05-15T08:12:23.613Z,4.90
2023-05-15T08:14:53.659Z,5.67
2023-05-15T08:17:22.181Z,5.13
2023-05-15T08:19:49.953Z,4.80
2023-05-15T08:22:17.433Z,4.90
2023-05-15T08:24:45.382Z,4.43
2023-05-15T08:27:12.457Z,4.18
2023-05-15T08:29:40.361Z,4.67
2023-05-15T08:32:09.434Z,4.87
2023-05-15T08:34:36.473Z,5.47
2023-05-15T08:37:04.573Z,5.83
2023-05-15T08:39:31.804Z,6.37
2023-05-15T08:42:24.651Z,6.10
2023-05-15T08:44:52.682Z,5.60
2023-05-15T08:47:23.088Z,5.47
2023-05-15T08:50:15.169Z,5.67
2023-05-15T08:52:47.747Z,5.33
2023-05-15T08:55:15.807Z,4.90
2023-05-15T08:57:45.604Z,5.27
2023-05-15T09:00:14.507Z,5.00
2023-05-15T09:02:43.084Z,5.20
2023-05-15T09:05:10.972Z,4.60
2023-05-15T09:07:42.572Z,5.37
2023-05-15T09:10:11.108Z,4.97
2023-05-15T09:12:44.884Z,4.70
2023-05-15T09:15:21.868Z,5.20
2023-05-15T09:17:50.474Z,4.83
2023-05-15T09:20:38.234Z,4.63
2023-05-15T09:23:21.797Z,4.83
2023-05-15T09:25:53.234Z,4.40
2023-05-15T09:28:33.738Z,4.03
2023-05-15T09:31:09.056Z,3.87
2023-05-15T09:33:42.481Z,4.13
2023-05-15T09:36:10.656Z,4.20
2023-05-15T09:38:43.921Z,4.00
2023-05-15T09:41:11.549Z,5.07
2023-05-15T09:43:41.230Z,3.95
2023-05-15T09:46:09.402Z,4.10
2023-05-15T09:48:37.012Z,3.85
2023-05-15T09:51:18.563Z,3.97
2023-05-15T09:53:53.274Z,4.80
2023-05-15T09:56:21.820Z,4.30
2023-05-15T09:58:57.625Z,4.93
2023-05-15T10:01:26.549Z,5.10
2023-05-15T10:04:06.661Z,4.90
2023-05-15T10:06:43.160Z,5.20
2023-05-15T10:09:11.720Z,5.03
2023-05-15T10:11:52.854Z,4.37
2023-05-15T10:14:22.316Z,4.30
2023-05-15T10:16:57.033Z,4.57
2023-05-15T10:19:27.506Z,4.60
2023-05-15T10:21:56.053Z,4.43
2023-05-15T10:24:25.756Z,4.00
2023-05-15T10:26:55.630Z,3.73
2023-05-15T10:29:25.339Z,3.20
2023-05-15T10:31:53.575Z,3.03
2023-05-15T10:34:21.139Z,2.70
2023-05-15T10:36:50.883Z,2.57
2023-05-15T10:39:19.046Z,3.25
2023-05-15T10:41:47.023Z,2.55
2023-05-15T10:44:15.626Z,2.92
2023-05-15T10:46:44.153Z,2.87
2023-05-15T10:49:11.270Z,2.60
2023-05-15T10:51:40.345Z,2.77
2023-05-15T10:54:09.862Z,2.45
2023-05-15T10:56:42.082Z,2.60
2023-05-15T10:59:11.739Z,2.58
2023-05-15T11:01:41.259Z,2.30
2023-05-15T11:04:19.252Z,2.33
2023-05-15T11:06:50.874Z,1.90
2023-05-15T11:09:27.885Z,1.90
2023-05-15T11:12:05.978Z,1.33
2023-05-15T11:15:03.164Z,1.90
2023-05-15T11:17:35.694Z,1.88
2023-05-15T11:20:05.306Z,1.90
2023-05-15T11:22:37.551Z,1.52
2023-05-15T11:25:14.481Z,1.85
2023-05-15T11:27:47.775Z,1.70
2023-05-15T11:30:24.985Z,2.10
2023-05-15T11:33:08.914Z,2.00
2023-05-15T11:35:48.851Z,1.77
2023-05-15T11:38:26.216Z,1.40
2023-05-15T11:40:59.019Z,1.27
2023-05-15T11:43:31.977Z,1.60
2023-05-15T11:46:02.791Z,1.70
2023-05-15T11:48:42.861Z,1.50
2023-05-15T11:51:27.576Z,1.60
2023-05-15T11:53:56.680Z,2.13
2023-05-15T11:56:28.384Z,2.22
2023-05-15T11:59:04.062Z,1.80
2023-05-15T12:01:47.619Z,1.70
2023-05-15T12:04:17.222Z,1.40
2023-05-15T12:06:47.360Z,1.30
2023-05-15T12:09:19.492Z,1.40
2023-05-15T12:11:57.655Z,1.42
2023-05-15T12:14:32.063Z,1.60
2023-05-15T12:17:04.365Z,1.60
2023-05-15T12:19:33.807Z,1.65
2023-05-15T12:22:01.148Z,1.65
2023-05-15T12:24:28.211Z,1.60
2023-05-15T12:26:57.420Z,1.70
2023-05-15T12:29:26.624Z,1.60
2023-05-15T12:31:54.331Z,1.58
2023-05-15T12:34:22.121Z,1.40
2023-05-15T12:36:49.236Z,1.30
2023-05-15T12:39:16.451Z,1.63
2023-05-15T12:41:49.117Z,1.02
2023-05-15T12:44:18.429Z,1.67
2023-05-15T12:46:47.554Z,1.30
2023-05-15T12:49:21.532Z,1.17
2023-05-15T12:51:49.061Z,1.40
2023-05-15T12:54:26.226Z,1.80
2023-05-15T12:56:54.694Z,1.55
2023-05-15T12:59:22.829Z,1.23
2023-05-15T13:01:50.417Z,1.20
2023-05-15T13:04:17.994Z,1.40
2023-05-15T13:07:19.627Z,1.50
2023-05-15T13:10:01.783Z,1.50
2023-05-15T13:12:42.597Z,0.90
2023-05-15T13:15:39.186Z,0.77
2023-05-15T13:18:14.186Z,1.08
2023-05-15T13:20:47.977Z,1.00
2023-05-15T13:23:19.710Z,1.05
2023-05-15T13:25:47.347Z,1.07
2023-05-15T13:28:16.945Z,0.98
2023-05-15T13:30:44.057Z,0.90
2023-05-15T13:33:12.966Z,0.80
2023-05-15T13:35:42.952Z,0.90
2023-05-15T13:38:12.672Z,0.80
2023-05-15T13:40:40.258Z,1.10
2023-05-15T13:43:07.402Z,1.10
2023-05-15T13:45:35.158Z,0.90
2023-05-15T13:48:02.423Z,1.00
2023-05-15T13:50:29.925Z,1.33
2023-05-15T13:52:57.064Z,1.40
2023-05-15T13:55:26.060Z,1.17
2023-05-15T13:58:03.240Z,1.27
2023-05-15T14:00:30.480Z,1.43
2023-05-15T14:02:57.676Z,1.20
2023-05-15T14:05:24.864Z,1.63
2023-05-15T14:07:51.884Z,1.90
2023-05-15T14:10:20.726Z,1.80
2023-05-15T14:12:47.873Z,1.70
2023-05-15T14:15:15.151Z,2.10
2023-05-15T14:17:43.198Z,1.70
2023-05-15T14:20:11.649Z,1.90
2023-05-15T14:22:42.520Z,2.03
2023-05-15T14:25:13.248Z,2.03
2023-05-15T14:27:40.926Z,2.20
2023-05-15T14:30:09.076Z,2.23
2023-05-15T14:32:39.261Z,2.07
2023-05-15T14:35:06.708Z,2.30
2023-05-15T14:37:33.897Z,1.83
2023-05-15T14:40:00.973Z,2.90
2023-05-15T14:42:28.194Z,2.30
2023-05-15T14:44:55.286Z,2.30
2023-05-15T14:47:22.560Z,2.60
2023-05-15T14:49:49.670Z,2.63
2023-05-15T14:52:16.774Z,2.70
2023-05-15T14:54:45.909Z,2.30
2023-05-15T14:57:19.238Z,2.60
2023-05-15T14:59:47.471Z,1.90
2023-05-15T15:02:14.557Z,2.20
2023-05-15T15:04:41.722Z,2.00
2023-05-15T15:07:13.173Z,1.97
2023-05-15T15:09:40.463Z,2.27
2023-05-15T15:12:07.931Z,2.30
2023-05-15T15:14:36.231Z,2.70
2023-05-15T15:17:04.147Z,2.40
2023-05-15T15:19:31.358Z,2.00
2023-05-15T15:21:58.523Z,1.87
2023-05-15T15:24:25.640Z,1.90
2023-05-15T15:26:52.676Z,2.10
2023-05-15T15:29:19.883Z,2.20
2023-05-15T15:31:46.925Z,2.87
2023-05-15T15:34:14.051Z,2.43
2023-05-15T15:36:41.451Z,2.07
2023-05-15T15:39:08.667Z,2.70
2023-05-15T15:41:38.610Z,2.70
2023-05-15T15:44:05.918Z,3.20
2023-05-15T15:46:33.219Z,3.80
2023-05-15T15:49:00.496Z,3.67
2023-05-15T15:51:28.138Z,3.80
2023-05-15T15:53:55.350Z,3.10
2023-05-15T15:56:22.695Z,3.30
2023-05-15T15:58:51.068Z,3.00
2023-05-15T16:01:21.512Z,3.40
2023-05-15T16:03:48.747Z,3.00
2023-05-15T16:06:15.993Z,3.17
2023-05-15T16:08:43.042Z,3.73
2023-05-15T16:11:10.157Z,4.00
2023-05-15T16:13:38.315Z,4.50
2023-05-15T16:16:06.836Z,4.87
2023-05-15T16:18:34.896Z,5.17
2023-05-15T16:21:02.134Z,5.20
2023-05-15T16:23:32.785Z,5.10
2023-05-15T16:25:59.871Z,4.70
2023-05-15T16:28:26.972Z,4.13
2023-05-15T16:30:54.272Z,4.00
2023-05-15T16:33:21.595Z,3.80
2023-05-15T16:35:49.566Z,4.43
2023-05-15T16:38:18.105Z,3.80
2023-05-15T16:40:46.405Z,4.07
2023-05-15T16:43:14.093Z,4.00
2023-05-15T16:45:41.272Z,4.20
2023-05-15T16:48:08.512Z,4.27
2023-05-15T16:50:37.658Z,3.83
2023-05-15T16:53:05.124Z,4.37
2023-05-15T16:55:33.053Z,3.70
2023-05-15T16:58:00.381Z,3.70
2023-05-15T17:00:27.732Z,3.63
2023-05-15T17:05:22.327Z,3.70
2023-05-15T17:07:49.380Z,3.93
2023-05-15T17:10:16.519Z,3.73
2023-05-15T17:12:43.797Z,3.57
2023-05-15T17:15:13.351Z,3.70
2023-05-15T17:17:40.633Z,4.07
2023-05-15T17:20:09.145Z,3.47
2023-05-15T17:22:36.760Z,3.53
2023-05-15T17:25:04.296Z,3.40
2023-05-15T17:27:32.222Z,3.00
2023-05-15T17:29:59.248Z,3.20
2023-05-15T17:32:28.551Z,3.80
2023-05-15T17:34:55.741Z,3.30
2023-05-15T17:37:22.909Z,3.60
2023-05-15T17:39:51.053Z,3.30
2023-05-15T17:42:18.165Z,3.47
2023-05-15T17:44:45.239Z,3.13
2023-05-15T17:47:12.426Z,3.03
2023-05-15T17:49:39.843Z,3.37
2023-05-15T17:52:08.954Z,3.27
2023-05-15T17:54:36.026Z,3.07
2023-05-15T17:57:03.172Z,3.80
2023-05-15T17:59:31.161Z,3.90
2023-05-15T18:01:58.384Z,3.93
2023-05-15T18:04:25.583Z,4.17
2023-05-15T18:06:52.709Z,3.50
2023-05-15T18:09:24.424Z,4.50
2023-05-15T18:11:52.101Z,4.20
2023-05-15T18:14:19.155Z,3.87
2023-05-15T18:16:46.196Z,3.90
2023-05-15T18:19:14.069Z,4.07
2023-05-15T18:21:41.188Z,3.60
2023-05-15T18:24:08.254Z,3.77
2023-05-15T18:26:35.376Z,4.17
2023-05-15T18:29:02.424Z,3.40
2023-05-15T18:31:29.547Z,3.80
2023-05-15T18:33:56.770Z,4.10
2023-05-15T18:36:23.923Z,4.43
2023-05-15T18:38:51.280Z,4.20
2023-05-15T18:41:18.285Z,3.80
2023-05-15T18:43:45.300Z,3.90
2023-05-15T18:46:12.317Z,4.10
2023-05-15T18:48:39.349Z,4.43
2023-05-15T18:51:06.463Z,3.93
2023-05-15T18:53:33.514Z,4.07
2023-05-15T18:56:00.511Z,4.20
2023-05-15T18:58:27.584Z,3.67
2023-05-15T19:00:56.350Z,4.00
2023-05-15T19:03:25.600Z,4.73
2023-05-15T19:05:52.774Z,3.90
2023-05-15T19:08:19.789Z,4.20
2023-05-15T19:10:50.393Z,4.23
2023-05-15T19:13:17.494Z,5.60
2023-05-15T19:15:52.264Z,5.10
2023-05-15T19:18:19.864Z,4.60
2023-05-15T19:20:50.475Z,4.20
2023-05-15T19:23:17.823Z,4.63
2023-05-15T19:25:45.061Z,4.37
2023-05-15T19:28:12.943Z,4.20
2023-05-15T19:30:40.083Z,4.43
2023-05-15T19:33:07.279Z,4.63
2023-05-15T19:35:37.489Z,4.33
2023-05-15T19:38:04.896Z,5.17
2023-05-15T19:40:31.998Z,6.97
2023-05-15T19:42:59.042Z,14.13
2023-05-15T19:45:26.079Z,12.77
2023-05-15T19:47:53.262Z,8.47
2023-05-15T19:50:20.430Z,6.83
2023-05-15T19:52:47.570Z,7.10
2023-05-15T19:55:15.062Z,6.10
2023-05-15T19:57:44.902Z,8.20
2023-05-15T20:00:13.963Z,7.23
2023-05-15T20:02:42.315Z,6.27
2023-05-15T20:05:09.982Z,5.60
2023-05-15T20:07:38.139Z,4.80
2023-05-15T20:10:07.635Z,4.43
2023-05-15T20:12:34.853Z,5.00
2023-05-15T20:15:04.220Z,4.30
2023-05-15T20:17:33.772Z,4.27
2023-05-15T20:20:02.177Z,5.37
2023-05-15T20:22:32.312Z,4.40
2023-05-15T20:25:01.645Z,4.13
2023-05-15T20:27:28.849Z,4.50
2023-05-15T20:29:55.971Z,4.47
2023-05-15T20:32:23.181Z,4.30
2023-05-15T20:34:50.656Z,4.37
2023-05-15T20:37:18.218Z,4.60
2023-05-15T20:39:45.614Z,4.33
2023-05-15T20:42:12.730Z,3.37
2023-05-15T20:44:44.559Z,3.87
2023-05-15T20:47:11.718Z,4.00
2023-05-15T20:49:39.006Z,4.57
2023-05-15T20:52:06.542Z,4.47
2023-05-15T20:54:33.732Z,4.57
2023-05-15T20:57:01.008Z,4.77
2023-05-15T20:59:30.351Z,4.50
2023-05-15T21:01:57.516Z,4.23
2023-05-15T21:04:24.710Z,4.60
2023-05-15T21:06:52.207Z,3.73
2023-05-15T21:09:19.312Z,4.20
2023-05-15T21:11:47.218Z,4.37
2023-05-15T21:14:14.626Z,4.27
2023-05-15T21:16:41.835Z,4.57
2023-05-15T21:19:08.991Z,3.87
2023-05-15T21:21:36.224Z,4.27
2023-05-15T21:24:03.835Z,3.63
2023-05-15T21:26:31.178Z,4.03
2023-05-15T21:29:02.280Z,3.93
2023-05-15T21:31:29.580Z,4.10
2023-05-15T21:33:56.813Z,4.00
2023-05-15T21:36:24.081Z,4.00
2023-05-15T21:38:51.185Z,3.93
2023-05-15T21:41:18.282Z,4.30
2023-05-15T21:43:45.709Z,4.27
2023-05-15T21:46:13.152Z,3.60
2023-05-15T21:48:42.595Z,4.53
2023-05-15T21:51:09.630Z,4.60
2023-05-15T21:53:37.812Z,4.63
2023-05-15T21:56:05.496Z,3.90
2023-05-15T21:58:32.736Z,4.90
2023-05-15T22:00:59.782Z,5.50
2023-05-15T22:03:27.057Z,4.77
2023-05-15T22:05:54.209Z,5.00
2023-05-15T22:08:21.571Z,5.07
2023-05-15T22:10:49.606Z,4.87
2023-05-15T22:13:16.729Z,4.70
2023-05-15T22:15:43.919Z,4.80
2023-05-15T22:18:12.471Z,5.30
2023-05-15T22:20:39.489Z,5.30
2023-05-15T22:23:07.174Z,4.90
2023-05-15T22:25:34.221Z,5.20
2023-05-15T22:28:01.255Z,4.93
2023-05-15T22:31:07.361Z,4.77
2023-05-15T22:33:34.454Z,5.07
2023-05-15T22:36:01.515Z,5.00
2023-05-15T22:38:28.566Z,5.20
2023-05-15T22:40:55.722Z,5.20
2023-05-15T22:43:22.806Z,5.90
2023-05-15T22:45:49.936Z,6.10
2023-05-15T22:48:17.057Z,6.03
2023-05-15T22:50:44.764Z,5.50
2023-05-15T22:53:11.857Z,6.73
2023-05-15T22:55:38.972Z,6.43
2023-05-15T22:58:06.235Z,6.37
2023-05-15T23:00:33.924Z,6.73
2023-05-15T23:03:00.995Z,6.37
2023-05-15T23:05:28.186Z,7.53
2023-05-15T23:07:55.537Z,6.90
2023-05-15T23:10:22.813Z,7.30
2023-05-15T23:12:51.033Z,7.03
2023-05-15T23:15:18.162Z,7.40
2023-05-15T23:17:45.464Z,6.63
2023-05-15T23:20:13.444Z,7.13
2023-05-15T23:22:40.619Z,7.50
2023-05-15T23:25:08.859Z,7.40
2023-05-15T23:27:35.882Z,6.97
2023-05-15T23:30:03.305Z,6.90
2023-05-15T23:32:30.481Z,7.10
2023-05-15T23:34:58.721Z,6.00
2023-05-15T23:37:25.945Z,6.97
2023-05-15T23:39:55.152Z,7.43
2023-05-15T23:42:23.345Z,6.83
2023-05-15T23:44:51.071Z,6.77
2023-05-15T23:47:18.182Z,6.87
2023-05-15T23:49:45.249Z,6.60
2023-05-15T23:52:12.287Z,6.80
2023-05-15T23:54:40.468Z,7.60
2023-05-15T23:57:07.543Z,7.10
2023-05-15T23:59:34.620Z,6.37
